Time;durP1;ratioP1;P1;durP2;ratioP2;P2;SDS_P1;SDS_P2;PMS_P1;PMS_P2;Temp;Humidity;BMP_temperature;BMP_pressure;BME280_temperature;BME280_humidity;BME280_pressure;Samples;Min_cycle;Max_cycle;Signal;HPM_P1;HPM_P2
2022/04/28 00:02:16;;;;;;;;;;;19.40;99.90;;;;;;4881522;29;19923;-79
2022/04/28 00:04:43;;;;;;;;;;;19.50;99.90;;;;;;4881480;29;19940;-75
2022/04/28 00:07:10;;;;;;;;;;;19.50;99.90;;;;;;4881401;29;19912;-79
2022/04/28 00:09:36;;;;;;;;;;;19.30;99.90;;;;;;4881073;29;19916;-81
2022/04/28 00:12:03;;;;;;;;;;;19.30;99.90;;;;;;4881420;29;19913;-85
2022/04/28 00:14:30;;;;;;;;;;;19.20;99.90;;;;;;4881255;29;19919;-75
2022/04/28 00:29:42;;;;;;;;;;;19.20;99.90;;;;;;4881122;29;20378;-75
2022/04/28 00:32:09;;;;;;;;;;;19.20;99.90;;;;;;4880883;29;19951;-75
2022/04/28 00:34:36;;;;;;;;;;;19.10;99.90;;;;;;4880623;29;20287;-75
2022/04/28 00:37:03;;;;;;;;;;;19.10;99.90;;;;;;4880519;29;19994;-76
2022/04/28 00:39:30;;;;;;;;;;;19.20;99.90;;;;;;4880620;29;19970;-75
2022/04/28 00:41:56;;;;;;;;;;;19.30;99.90;;;;;;4880652;29;20360;-75
2022/04/28 00:44:23;;;;;;;;;;;19.30;99.90;;;;;;4880644;29;19912;-75
2022/04/28 00:46:50;;;;;;;;;;;19.30;99.90;;;;;;4880726;29;19912;-75
2022/04/28 00:52:02;;;;;;;;;;;19.30;99.90;;;;;;4880606;29;19941;-75
2022/04/28 00:54:28;;;;;;;;;;;19.30;99.90;;;;;;4880457;29;20060;-75
2022/04/28 00:56:56;;;;;;;;;;;19.30;99.90;;;;;;4880418;29;19912;-74
2022/04/28 00:59:25;;;;;;;;;;;19.30;99.90;;;;;;4880289;29;19996;-74
2022/04/28 01:01:51;;;;;;;;;;;19.30;99.90;;;;;;4880115;29;20367;-75
2022/04/28 01:04:18;;;;;;;;;;;19.30;99.90;;;;;;4878146;29;20030;-75
2022/04/28 01:06:45;;;;;;;;;;;19.30;99.90;;;;;;4880216;29;19912;-75
2022/04/28 01:09:11;;;;;;;;;;;19.30;99.90;;;;;;4878931;29;19969;-75
2022/04/28 01:11:40;;;;;;;;;;;19.30;99.90;;;;;;4879988;29;19912;-75
2022/04/28 01:14:07;;;;;;;;;;;19.50;99.90;;;;;;4879925;29;19920;-75
2022/04/28 01:16:34;;;;;;;;;;;19.50;99.90;;;;;;4880199;29;19915;-75
2022/04/28 01:19:00;;;;;;;;;;;19.50;99.90;;;;;;4880212;29;19911;-75
2022/04/28 01:21:27;;;;;;;;;;;19.50;99.90;;;;;;4879769;29;19912;-75
2022/04/28 01:23:55;;;;;;;;;;;19.40;99.90;;;;;;4879775;29;20103;-76
2022/04/28 01:26:23;;;;;;;;;;;19.40;99.90;;;;;;4879811;29;19919;-75
2022/04/28 01:28:50;;;;;;;;;;;19.40;99.90;;;;;;4879772;29;20303;-75
2022/04/28 01:31:16;;;;;;;;;;;19.40;99.90;;;;;;4879838;29;19999;-74
2022/04/28 01:33:43;;;;;;;;;;;19.60;99.90;;;;;;4879729;29;19926;-74
2022/04/28 01:36:10;;;;;;;;;;;19.60;99.90;;;;;;4879649;29;20384;-75
2022/04/28 01:38:37;;;;;;;;;;;19.70;99.90;;;;;;4879749;29;19963;-76
2022/04/28 01:41:03;;;;;;;;;;;19.70;99.90;;;;;;4879644;29;19918;-74
2022/04/28 01:43:30;;;;;;;;;;;19.70;99.90;;;;;;4879434;29;20022;-75
2022/04/28 01:45:57;;;;;;;;;;;19.70;99.90;;;;;;4879785;29;19920;-76
2022/04/28 01:48:23;;;;;;;;;;;19.80;99.90;;;;;;4879769;29;19968;-76
2022/04/28 01:56:19;;;;;;;;;;;20.00;99.90;;;;;;4879622;29;20294;-76
2022/04/28 01:58:46;;;;;;;;;;;20.10;99.90;;;;;;4879633;29;20329;-75
2022/04/28 02:01:12;;;;;;;;;;;20.10;99.90;;;;;;4878697;29;19919;-76
2022/04/28 02:03:39;;;;;;;;;;;20.10;99.90;;;;;;4870174;29;19928;-77
2022/04/28 02:06:06;;;;;;;;;;;20.20;99.90;;;;;;4860005;29;19912;-80
2022/04/28 02:08:32;;;;;;;;;;;20.10;99.90;;;;;;4865105;29;19977;-78
2022/04/28 02:11:00;;;;;;;;;;;20.20;99.90;;;;;;4879612;29;19912;-80
2022/04/28 02:13:26;;;;;;;;;;;20.20;99.90;;;;;;4879356;29;19932;-80
2022/04/28 02:15:53;;;;;;;;;;;20.20;99.90;;;;;;4882566;29;19915;-82
2022/04/28 02:18:20;;;;;;;;;;;20.20;99.90;;;;;;4883213;29;20343;-77
2022/04/28 02:20:46;;;;;;;;;;;20.20;99.90;;;;;;4883219;29;19916;-77
2022/04/28 02:23:13;;;;;;;;;;;20.20;99.90;;;;;;4883071;29;19974;-79
2022/04/28 02:25:40;;;;;;;;;;;20.10;99.90;;;;;;4883173;29;19922;-76
2022/04/28 02:28:06;;;;;;;;;;;20.20;99.90;;;;;;4883000;29;19916;-78
2022/04/28 02:30:33;;;;;;;;;;;20.20;99.90;;;;;;4882995;29;19934;-78
2022/04/28 02:33:09;;;;;;;;;;;20.20;99.90;;;;;;4883084;29;20279;-85
2022/04/28 02:35:35;;;;;;;;;;;20.30;99.90;;;;;;4882901;29;19916;-77
2022/04/28 02:38:02;;;;;;;;;;;20.30;99.90;;;;;;4882946;29;19912;-83
2022/04/28 02:40:30;;;;;;;;;;;20.20;99.90;;;;;;4882798;29;19919;-80
2022/04/28 02:42:56;;;;;;;;;;;20.20;99.90;;;;;;4882674;29;19920;-80
2022/04/28 02:45:23;;;;;;;;;;;20.30;99.90;;;;;;4882679;29;19912;-79
2022/04/28 02:47:50;;;;;;;;;;;20.20;99.90;;;;;;4882457;29;19946;-80
2022/04/28 02:50:16;;;;;;;;;;;20.20;99.90;;;;;;4882750;29;19915;-85
2022/04/28 02:52:43;;;;;;;;;;;20.10;99.90;;;;;;4882653;29;20018;-79
2022/04/28 02:55:10;;;;;;;;;;;20.00;99.90;;;;;;4882527;29;19916;-79
2022/04/28 02:57:37;;;;;;;;;;;20.10;99.90;;;;;;4882379;29;20191;-78
2022/04/28 03:00:05;;;;;;;;;;;20.10;99.90;;;;;;4882563;29;19912;-82
2022/04/28 03:02:32;;;;;;;;;;;20.10;99.90;;;;;;4882618;29;19920;-81
2022/04/28 03:05:01;;;;;;;;;;;20.00;99.90;;;;;;4882451;29;19923;-81
2022/04/28 03:13:00;;;;;;;;;;;20.00;99.90;;;;;;4882549;29;20378;-82
2022/04/28 03:15:27;;;;;;;;;;;20.10;99.90;;;;;;4882154;29;20035;-78
2022/04/28 03:17:54;;;;;;;;;;;20.00;99.90;;;;;;4881976;29;19940;-79
2022/04/28 03:20:20;;;;;;;;;;;20.00;99.90;;;;;;4880885;29;20264;-78
2022/04/28 03:22:47;;;;;;;;;;;20.00;99.90;;;;;;4881980;29;20279;-80
2022/04/28 03:25:14;;;;;;;;;;;20.00;99.90;;;;;;4865308;29;20391;-78
2022/04/28 03:27:40;;;;;;;;;;;20.00;99.90;;;;;;4881130;29;19911;-80
2022/04/28 03:30:08;;;;;;;;;;;19.90;99.90;;;;;;4882040;29;19916;-77
2022/04/28 03:32:35;;;;;;;;;;;19.80;99.90;;;;;;4881764;29;20361;-74
2022/04/28 03:35:01;;;;;;;;;;;19.70;99.90;;;;;;4881901;29;19916;-74
2022/04/28 03:37:28;;;;;;;;;;;19.60;99.90;;;;;;4881888;29;19912;-77
2022/04/28 03:39:55;;;;;;;;;;;19.60;99.90;;;;;;4874839;29;19945;-82
2022/04/28 03:42:21;;;;;;;;;;;19.60;99.90;;;;;;4868869;29;19912;-75
2022/04/28 03:44:48;;;;;;;;;;;19.60;99.90;;;;;;4862341;29;19961;-73
2022/04/28 03:47:15;;;;;;;;;;;19.50;99.90;;;;;;4876044;29;20356;-74
2022/04/28 03:49:42;;;;;;;;;;;19.50;99.90;;;;;;4881457;29;20343;-74
2022/04/28 03:52:09;;;;;;;;;;;19.50;99.90;;;;;;4881561;29;19911;-76
2022/04/28 03:54:36;;;;;;;;;;;19.40;99.90;;;;;;4881276;29;20054;-75
2022/04/28 03:57:02;;;;;;;;;;;19.30;99.90;;;;;;4881439;29;19912;-75
2022/04/28 03:59:29;;;;;;;;;;;19.20;99.90;;;;;;4881430;29;19912;-75
2022/04/28 04:01:56;;;;;;;;;;;19.20;99.90;;;;;;4881524;29;20284;-75
2022/04/28 04:04:22;;;;;;;;;;;19.20;99.90;;;;;;4880019;29;19924;-76
2022/04/28 04:06:49;;;;;;;;;;;19.20;99.90;;;;;;4881076;29;20261;-75
2022/04/28 04:09:16;;;;;;;;;;;19.20;99.90;;;;;;4881245;29;19912;-80
2022/04/28 04:11:42;;;;;;;;;;;19.20;99.90;;;;;;4881016;29;19919;-77
2022/04/28 04:14:11;;;;;;;;;;;19.20;99.90;;;;;;4881191;29;19924;-80
2022/04/28 04:16:38;;;;;;;;;;;19.20;99.90;;;;;;4880826;29;20045;-78
2022/04/28 04:19:05;;;;;;;;;;;19.20;99.90;;;;;;4880846;29;20364;-78
2022/04/28 04:21:31;;;;;;;;;;;19.20;99.90;;;;;;4880745;29;19943;-78
2022/04/28 04:23:59;;;;;;;;;;;19.20;99.90;;;;;;4864183;29;19916;-77
2022/04/28 04:26:25;;;;;;;;;;;19.20;99.90;;;;;;4864121;29;19918;-78
2022/04/28 04:28:52;;;;;;;;;;;19.20;99.90;;;;;;4880933;29;19916;-76
2022/04/28 04:34:03;;;;;;;;;;;19.20;99.90;;;;;;4881010;29;20383;-81
2022/04/28 04:36:30;;;;;;;;;;;19.10;99.90;;;;;;4880687;29;20279;-79
2022/04/28 04:38:57;;;;;;;;;;;19.10;99.90;;;;;;4880695;29;19998;-79
2022/04/28 04:41:24;;;;;;;;;;;19.10;99.90;;;;;;4880723;29;19999;-78
2022/04/28 04:43:50;;;;;;;;;;;19.20;99.90;;;;;;4880476;29;20328;-74
2022/04/28 04:46:17;;;;;;;;;;;19.20;99.90;;;;;;4880822;29;20018;-75
2022/04/28 04:48:44;;;;;;;;;;;19.10;99.90;;;;;;4880531;29;19911;-79
2022/04/28 04:51:10;;;;;;;;;;;19.10;99.90;;;;;;4880424;29;20006;-80
2022/04/28 04:53:37;;;;;;;;;;;19.10;99.90;;;;;;4880214;29;19927;-76
2022/04/28 04:56:04;;;;;;;;;;;19.10;99.90;;;;;;4880305;29;19939;-77
2022/04/28 04:58:31;;;;;;;;;;;19.00;99.90;;;;;;4880477;29;19912;-79
2022/04/28 05:00:58;;;;;;;;;;;19.00;99.90;;;;;;4880391;29;20002;-78
2022/04/28 05:03:24;;;;;;;;;;;19.00;99.90;;;;;;4864171;29;19924;-80
2022/04/28 05:05:53;;;;;;;;;;;19.00;99.90;;;;;;4880041;29;19911;-77
2022/04/28 05:08:19;;;;;;;;;;;19.00;99.90;;;;;;4880381;29;20352;-81
2022/04/28 05:10:46;;;;;;;;;;;19.00;99.90;;;;;;4879858;29;20537;-79
2022/04/28 05:13:13;;;;;;;;;;;19.00;99.90;;;;;;4880087;29;20360;-82
2022/04/28 05:15:39;;;;;;;;;;;19.00;99.90;;;;;;4879828;29;20010;-83
2022/04/28 05:18:06;;;;;;;;;;;19.00;99.90;;;;;;4879934;29;19927;-75
2022/04/28 05:20:33;;;;;;;;;;;19.00;99.90;;;;;;4879905;29;19912;-81
2022/04/28 05:22:59;;;;;;;;;;;19.00;99.90;;;;;;4879985;29;19912;-78
2022/04/28 05:25:26;;;;;;;;;;;19.00;99.90;;;;;;4879967;29;20360;-78
2022/04/28 05:27:52;;;;;;;;;;;19.00;99.90;;;;;;4879742;29;19912;-76
2022/04/28 05:30:19;;;;;;;;;;;18.90;99.90;;;;;;4879587;29;19912;-76
2022/04/28 05:32:46;;;;;;;;;;;19.00;99.90;;;;;;4879812;29;20406;-79
2022/04/28 05:35:12;;;;;;;;;;;19.00;99.90;;;;;;4879616;29;19920;-78
2022/04/28 05:37:40;;;;;;;;;;;19.00;99.90;;;;;;4879300;29;19960;-77
2022/04/28 05:40:07;;;;;;;;;;;19.00;99.90;;;;;;4879663;29;20309;-79
2022/04/28 05:48:03;;;;;;;;;;;19.00;99.90;;;;;;4879716;29;20006;-77
2022/04/28 05:50:30;;;;;;;;;;;18.90;99.90;;;;;;4879208;29;19923;-77
2022/04/28 05:52:57;;;;;;;;;;;18.90;99.90;;;;;;4879486;29;19927;-75
2022/04/28 05:55:23;;;;;;;;;;;19.00;99.90;;;;;;4879278;29;19955;-77
2022/04/28 05:57:50;;;;;;;;;;;19.00;99.90;;;;;;4879416;29;19915;-78
2022/04/28 06:00:17;;;;;;;;;;;19.00;99.90;;;;;;4879284;29;19916;-75
2022/04/28 06:02:44;;;;;;;;;;;19.00;99.90;;;;;;4879709;29;19912;-80
2022/04/28 06:05:10;;;;;;;;;;;19.00;99.90;;;;;;4879389;29;20287;-79
2022/04/28 06:07:37;;;;;;;;;;;18.90;99.90;;;;;;4879199;29;19965;-81
2022/04/28 06:10:04;;;;;;;;;;;18.90;99.90;;;;;;4879560;29;19960;-77
2022/04/28 06:12:30;;;;;;;;;;;18.90;99.90;;;;;;4879619;29;19916;-77
2022/04/28 06:14:57;;;;;;;;;;;18.90;99.90;;;;;;4879315;29;19931;-75
2022/04/28 06:17:23;;;;;;;;;;;18.90;99.90;;;;;;4879509;29;19950;-76
2022/04/28 06:19:50;;;;;;;;;;;18.90;99.90;;;;;;4878885;29;19916;-77
2022/04/28 06:22:17;;;;;;;;;;;18.90;99.90;;;;;;4879426;29;19916;-76
2022/04/28 06:24:43;;;;;;;;;;;18.90;99.90;;;;;;4879275;29;19998;-76
2022/04/28 06:27:10;;;;;;;;;;;18.90;99.90;;;;;;4879339;29;19919;-77
2022/04/28 06:29:37;;;;;;;;;;;18.90;99.90;;;;;;4879253;29;19916;-76
2022/04/28 06:32:03;;;;;;;;;;;18.90;99.90;;;;;;4879289;29;19919;-78
2022/04/28 06:34:30;;;;;;;;;;;18.90;99.90;;;;;;4879317;29;20081;-75
2022/04/28 06:36:57;;;;;;;;;;;19.00;99.90;;;;;;4879316;29;19923;-76
2022/04/28 06:39:23;;;;;;;;;;;19.00;99.90;;;;;;4879079;29;19912;-76
2022/04/28 06:41:50;;;;;;;;;;;19.00;99.90;;;;;;4879102;29;19916;-76
2022/04/28 06:44:17;;;;;;;;;;;19.00;99.90;;;;;;4879215;29;19923;-76
2022/04/28 06:46:43;;;;;;;;;;;19.00;99.90;;;;;;4862254;29;20276;-75
2022/04/28 06:49:10;;;;;;;;;;;19.00;99.90;;;;;;4879150;29;20406;-75
2022/04/28 06:51:37;;;;;;;;;;;19.00;99.90;;;;;;4876933;29;19916;-76
2022/04/28 06:54:03;;;;;;;;;;;19.00;99.90;;;;;;4877085;29;19928;-75
2022/04/28 06:56:31;;;;;;;;;;;19.00;99.90;;;;;;4876921;29;19915;-75
2022/04/28 06:58:58;;;;;;;;;;;19.00;99.90;;;;;;4876977;29;19920;-77
2022/04/28 07:01:24;;;;;;;;;;;19.10;99.90;;;;;;4877681;29;19927;-79
2022/04/28 07:03:51;;;;;;;;;;;19.00;99.90;;;;;;4879935;29;19931;-76
2022/04/28 07:06:17;;;;;;;;;;;19.00;99.90;;;;;;4879896;29;20530;-77
2022/04/28 07:08:44;;;;;;;;;;;19.00;99.90;;;;;;4880116;29;19935;-76
2022/04/28 07:11:11;;;;;;;;;;;19.10;99.90;;;;;;4880049;29;20007;-78
2022/04/28 07:13:37;;;;;;;;;;;19.00;99.90;;;;;;4879631;29;20404;-75
2022/04/28 07:16:05;;;;;;;;;;;19.10;99.90;;;;;;4880205;29;19916;-76
2022/04/28 07:18:31;;;;;;;;;;;19.00;99.90;;;;;;4879681;29;19966;-78
2022/04/28 07:21:02;;;;;;;;;;;19.00;99.90;;;;;;4879764;29;20260;-75
2022/04/28 07:23:29;;;;;;;;;;;19.00;99.90;;;;;;4880026;29;19912;-74
2022/04/28 07:25:55;;;;;;;;;;;19.00;99.90;;;;;;4879982;29;19916;-78
2022/04/28 07:28:22;;;;;;;;;;;19.00;99.90;;;;;;4880005;29;19962;-76
2022/04/28 07:30:49;;;;;;;;;;;19.00;99.90;;;;;;4879459;29;19915;-78
2022/04/28 07:33:15;;;;;;;;;;;19.00;99.90;;;;;;4868319;29;19924;-77
2022/04/28 07:35:42;;;;;;;;;;;19.00;99.90;;;;;;4860185;29;19919;-77
2022/04/28 07:38:09;;;;;;;;;;;19.00;99.90;;;;;;4861219;29;20284;-75
2022/04/28 07:40:36;;;;;;;;;;;19.00;99.90;;;;;;4861125;29;20332;-79
2022/04/28 07:43:03;;;;;;;;;;;18.90;99.90;;;;;;4860836;29;19916;-75
2022/04/28 07:45:30;;;;;;;;;;;18.90;99.90;;;;;;4860606;29;19920;-76
2022/04/28 07:47:57;;;;;;;;;;;18.90;99.90;;;;;;4860855;29;19931;-79
2022/04/28 07:50:24;;;;;;;;;;;18.90;99.90;;;;;;4860289;29;19946;-76
2022/04/28 07:52:51;;;;;;;;;;;18.90;99.90;;;;;;4860910;29;19912;-78
2022/04/28 07:55:17;;;;;;;;;;;18.90;99.90;;;;;;4860622;29;19923;-76
2022/04/28 07:57:44;;;;;;;;;;;18.90;99.90;;;;;;4860243;29;19969;-77
2022/04/28 08:00:11;;;;;;;;;;;18.90;99.90;;;;;;4860707;29;19972;-79
2022/04/28 08:02:38;;;;;;;;;;;18.90;99.90;;;;;;4860749;29;19927;-80
2022/04/28 08:05:06;;;;;;;;;;;18.90;99.90;;;;;;4858806;29;19928;-77
2022/04/28 08:07:33;;;;;;;;;;;18.90;99.90;;;;;;4859439;29;19951;-79
2022/04/28 08:10:00;;;;;;;;;;;18.90;99.90;;;;;;4859300;29;19912;-79
2022/04/28 08:12:27;;;;;;;;;;;18.80;99.90;;;;;;4859216;29;19916;-78
2022/04/28 08:14:53;;;;;;;;;;;18.80;99.90;;;;;;4859358;29;19926;-78
2022/04/28 08:17:20;;;;;;;;;;;18.80;99.90;;;;;;4859776;29;19916;-74
2022/04/28 08:19:46;;;;;;;;;;;18.80;99.90;;;;;;4858555;29;19920;-76
2022/04/28 08:22:13;;;;;;;;;;;18.80;99.90;;;;;;4859271;29;20287;-75
2022/04/28 08:24:40;;;;;;;;;;;18.80;99.90;;;;;;4859245;29;19919;-76
2022/04/28 08:27:06;;;;;;;;;;;18.80;99.90;;;;;;4859116;29;19916;-76
2022/04/28 08:29:33;;;;;;;;;;;18.80;99.90;;;;;;4859217;29;20002;-75
2022/04/28 08:32:00;;;;;;;;;;;18.80;99.90;;;;;;4859595;29;19912;-79
2022/04/28 08:34:27;;;;;;;;;;;18.80;99.90;;;;;;4857744;29;19924;-75
2022/04/28 08:36:54;;;;;;;;;;;18.70;99.90;;;;;;4859007;29;19992;-78
2022/04/28 08:39:20;;;;;;;;;;;18.80;99.90;;;;;;4859291;29;20299;-76
2022/04/28 08:41:47;;;;;;;;;;;18.70;99.90;;;;;;4859121;29;20010;-76
2022/04/28 08:44:21;;;;;;;;;;;18.70;99.90;;;;;;4859365;29;20443;-75
2022/04/28 08:46:51;;;;;;;;;;;18.70;99.90;;;;;;4859399;29;19912;-78
2022/04/28 08:49:22;;;;;;;;;;;18.70;99.90;;;;;;4858977;29;19912;-75
2022/04/28 08:51:54;;;;;;;;;;;18.70;99.90;;;;;;4859036;29;19941;-74
2022/04/28 08:54:22;;;;;;;;;;;18.70;99.90;;;;;;4859035;29;19920;-75
2022/04/28 08:56:50;;;;;;;;;;;18.70;99.90;;;;;;4859058;29;19919;-75
2022/04/28 08:59:17;;;;;;;;;;;18.70;99.90;;;;;;4859083;29;20365;-75
2022/04/28 09:01:43;;;;;;;;;;;18.70;99.90;;;;;;4858664;29;20234;-75
2022/04/28 09:04:11;;;;;;;;;;;18.70;99.90;;;;;;4739643;29;3541316;-75
2022/04/28 09:06:39;;;;;;;;;;;18.70;99.90;;;;;;4861271;29;19923;-77
2022/04/28 09:09:07;;;;;;;;;;;18.70;99.90;;;;;;4861445;29;20007;-75
2022/04/28 09:11:36;;;;;;;;;;;18.70;99.90;;;;;;4861448;29;19917;-76
2022/04/28 09:14:11;;;;;;;;;;;18.70;99.90;;;;;;4861106;29;19920;-76
2022/04/28 09:16:44;;;;;;;;;;;18.70;99.90;;;;;;4860286;29;19912;-75
2022/04/28 09:19:12;;;;;;;;;;;18.70;99.90;;;;;;4861403;29;19919;-74
2022/04/28 09:21:39;;;;;;;;;;;18.70;99.90;;;;;;4861182;29;19912;-75
2022/04/28 09:24:07;;;;;;;;;;;18.70;99.90;;;;;;4860923;29;19916;-75
2022/04/28 09:26:34;;;;;;;;;;;18.70;99.90;;;;;;4861362;29;20011;-75
2022/04/28 09:29:04;;;;;;;;;;;18.70;99.90;;;;;;4861323;29;19920;-76
2022/04/28 09:31:34;;;;;;;;;;;18.70;99.90;;;;;;4860996;29;19919;-74
2022/04/28 09:34:12;;;;;;;;;;;18.70;99.90;;;;;;4860789;29;19928;-75
2022/04/28 09:36:40;;;;;;;;;;;18.70;99.90;;;;;;4861322;29;19960;-75
2022/04/28 09:39:08;;;;;;;;;;;18.70;99.90;;;;;;4861100;29;20340;-75
2022/04/28 09:44:20;;;;;;;;;;;18.70;99.90;;;;;;4861448;29;19948;-76
2022/04/28 09:46:48;;;;;;;;;;;18.60;99.90;;;;;;4861109;29;20372;-75
2022/04/28 09:49:17;;;;;;;;;;;18.70;99.90;;;;;;4860818;29;19916;-76
2022/04/28 09:51:44;;;;;;;;;;;18.60;99.90;;;;;;4860742;29;19926;-75
2022/04/28 09:54:12;;;;;;;;;;;18.70;99.90;;;;;;4860883;29;19920;-76
2022/04/28 09:56:40;;;;;;;;;;;18.70;99.90;;;;;;4861104;29;19912;-75
2022/04/28 09:59:16;;;;;;;;;;;18.70;99.90;;;;;;4860753;29;19916;-75
2022/04/28 10:01:43;;;;;;;;;;;18.70;99.90;;;;;;4860187;29;19920;-75
2022/04/28 10:04:10;;;;;;;;;;;18.70;99.90;;;;;;4860579;29;19930;-74
2022/04/28 10:06:38;;;;;;;;;;;18.70;99.90;;;;;;4860785;29;19922;-74
2022/04/28 10:09:17;;;;;;;;;;;18.70;99.90;;;;;;4860866;29;20288;-73
2022/04/28 10:11:44;;;;;;;;;;;18.70;99.90;;;;;;4860545;29;20320;-74
2022/04/28 10:14:13;;;;;;;;;;;18.80;99.90;;;;;;4860516;29;19931;-75
2022/04/28 10:16:43;;;;;;;;;;;18.80;99.90;;;;;;4860314;29;19912;-75
2022/04/28 10:19:21;;;;;;;;;;;18.80;99.90;;;;;;4860458;29;19916;-74
2022/04/28 10:22:08;;;;;;;;;;;18.80;99.90;;;;;;4860519;29;19912;-75
2022/04/28 10:32:57;;;;;;;;;;;18.90;99.90;;;;;;4860142;29;19969;-74
2022/04/28 10:35:33;;;;;;;;;;;18.90;99.90;;;;;;4861305;29;19916;-75
2022/04/28 10:38:06;;;;;;;;;;;18.80;99.90;;;;;;4864327;29;19999;-75
2022/04/28 10:40:36;;;;;;;;;;;18.80;99.90;;;;;;4864149;29;20003;-74
2022/04/28 10:43:03;;;;;;;;;;;18.80;99.90;;;;;;4864455;29;20304;-75
2022/04/28 10:45:39;;;;;;;;;;;18.90;99.90;;;;;;4864176;29;19983;-74
2022/04/28 10:48:26;;;;;;;;;;;18.80;99.90;;;;;;4863639;29;19968;-75
2022/04/28 10:51:05;;;;;;;;;;;18.80;99.90;;;;;;4864091;29;19912;-75
2022/04/28 10:53:32;;;;;;;;;;;18.90;99.90;;;;;;4863663;29;20003;-75
2022/04/28 10:56:09;;;;;;;;;;;18.90;99.90;;;;;;4863911;29;19912;-76
2022/04/28 10:58:36;;;;;;;;;;;18.90;99.90;;;;;;4863779;29;19913;-75
2022/04/28 11:01:04;;;;;;;;;;;18.90;99.90;;;;;;4863293;29;19935;-74
2022/04/28 11:03:47;;;;;;;;;;;18.90;99.90;;;;;;4863262;29;19920;-74
2022/04/28 11:06:14;;;;;;;;;;;18.90;99.90;;;;;;4863916;29;19999;-75
2022/04/28 11:08:45;;;;;;;;;;;18.90;99.90;;;;;;4863648;29;19919;-74
2022/04/28 11:11:13;;;;;;;;;;;19.00;99.90;;;;;;4863729;29;20456;-75
2022/04/28 11:13:43;;;;;;;;;;;19.00;99.90;;;;;;4863307;29;19916;-75
2022/04/28 11:16:10;;;;;;;;;;;19.00;99.90;;;;;;4863206;29;19917;-74
2022/04/28 11:18:37;;;;;;;;;;;19.00;99.90;;;;;;4863335;29;19912;-74
2022/04/28 11:21:05;;;;;;;;;;;19.00;99.90;;;;;;4863583;29;19948;-75
2022/04/28 11:23:40;;;;;;;;;;;19.00;99.90;;;;;;4863191;29;19912;-74
2022/04/28 11:26:07;;;;;;;;;;;19.00;99.90;;;;;;4863429;29;19916;-75
2022/04/28 11:28:37;;;;;;;;;;;19.00;99.90;;;;;;4863485;29;20502;-76
2022/04/28 11:31:11;;;;;;;;;;;18.90;99.90;;;;;;4862928;29;19912;-75
2022/04/28 11:33:42;;;;;;;;;;;19.00;99.90;;;;;;4862660;29;20253;-74
2022/04/28 11:36:34;;;;;;;;;;;19.00;99.90;;;;;;4863373;29;19916;-74
2022/04/28 11:39:03;;;;;;;;;;;19.00;99.90;;;;;;4862044;29;19935;-74
2022/04/28 11:41:34;;;;;;;;;;;19.00;99.90;;;;;;4863196;29;19920;-75
2022/04/28 11:44:07;;;;;;;;;;;19.00;99.90;;;;;;4863096;29;19912;-74
2022/04/28 11:46:43;;;;;;;;;;;19.00;99.90;;;;;;4862310;29;19912;-75
2022/04/28 11:49:10;;;;;;;;;;;19.00;99.90;;;;;;4862771;29;19928;-75
2022/04/28 11:51:37;;;;;;;;;;;19.00;99.90;;;;;;4862727;29;19916;-75
2022/04/28 11:54:04;;;;;;;;;;;19.00;99.90;;;;;;4862929;29;20332;-75
2022/04/28 11:56:33;;;;;;;;;;;19.00;99.90;;;;;;4862953;29;20004;-74
2022/04/28 11:59:04;;;;;;;;;;;19.00;99.90;;;;;;4862997;29;19919;-74
2022/04/28 12:01:32;;;;;;;;;;;19.00;99.90;;;;;;4862114;29;19919;-75
2022/04/28 12:03:59;;;;;;;;;;;19.00;99.90;;;;;;4862314;29;20279;-76
2022/04/28 12:06:26;;;;;;;;;;;19.00;99.90;;;;;;4862863;29;19912;-74
2022/04/28 12:08:57;;;;;;;;;;;19.00;99.90;;;;;;4862693;29;19941;-74
2022/04/28 12:14:27;;;;;;;;;;;19.10;99.90;;;;;;4862647;29;19927;-75
2022/04/28 12:20:03;;;;;;;;;;;19.10;99.90;;;;;;4862568;29;19920;-74
2022/04/28 12:22:40;;;;;;;;;;;19.10;99.90;;;;;;4862587;29;19919;-76
2022/04/28 12:25:11;;;;;;;;;;;19.10;99.90;;;;;;4862489;29;20015;-77
2022/04/28 12:27:45;;;;;;;;;;;19.10;99.90;;;;;;4862345;29;20276;-76
2022/04/28 12:30:13;;;;;;;;;;;19.10;99.90;;;;;;4861752;29;19968;-77
2022/04/28 12:32:44;;;;;;;;;;;19.10;99.90;;;;;;4862005;29;20317;-74
2022/04/28 12:35:19;;;;;;;;;;;19.20;99.90;;;;;;4862207;29;19927;-76
2022/04/28 12:37:46;;;;;;;;;;;19.10;99.90;;;;;;4862019;29;20103;-74
2022/04/28 12:40:20;;;;;;;;;;;19.10;99.90;;;;;;4862387;29;19912;-75
2022/04/28 12:42:48;;;;;;;;;;;19.10;99.90;;;;;;4861964;29;19916;-75
2022/04/28 12:45:16;;;;;;;;;;;19.10;99.90;;;;;;4861523;29;19920;-75
2022/04/28 12:47:44;;;;;;;;;;;19.10;99.90;;;;;;4861906;29;19916;-75
2022/04/28 12:50:22;;;;;;;;;;;19.00;99.90;;;;;;4862075;29;20292;-78
2022/04/28 12:52:49;;;;;;;;;;;19.00;99.90;;;;;;4861970;29;19912;-80
2022/04/28 12:55:18;;;;;;;;;;;19.00;99.90;;;;;;4861942;29;19920;-81
2022/04/28 12:57:46;;;;;;;;;;;19.00;99.90;;;;;;4861787;29;19912;-80
2022/04/28 13:00:13;;;;;;;;;;;19.00;99.90;;;;;;4860313;29;20206;-81
2022/04/28 13:02:46;;;;;;;;;;;19.00;99.90;;;;;;4861464;29;19916;-75
2022/04/28 13:05:14;;;;;;;;;;;19.00;99.90;;;;;;4861687;29;20435;-76
2022/04/28 13:07:41;;;;;;;;;;;19.00;99.90;;;;;;4861571;29;19972;-75
2022/04/28 13:10:09;;;;;;;;;;;19.00;99.90;;;;;;4861748;29;19913;-78
2022/04/28 13:12:36;;;;;;;;;;;19.00;99.90;;;;;;4861577;29;20352;-76
2022/04/28 13:15:04;;;;;;;;;;;19.00;99.90;;;;;;4860953;29;20010;-73
2022/04/28 13:17:31;;;;;;;;;;;18.90;99.90;;;;;;4861105;29;19976;-74
2022/04/28 13:19:57;;;;;;;;;;;19.00;99.90;;;;;;4861525;29;19934;-74
2022/04/28 13:22:24;;;;;;;;;;;19.00;99.90;;;;;;4861475;29;19919;-73
2022/04/28 13:24:51;;;;;;;;;;;18.90;99.90;;;;;;4861390;29;19913;-73
2022/04/28 13:27:18;;;;;;;;;;;18.90;99.90;;;;;;4861508;29;20372;-74
2022/04/28 13:29:46;;;;;;;;;;;18.90;99.90;;;;;;4860472;29;20337;-74
2022/04/28 13:32:13;;;;;;;;;;;18.90;99.90;;;;;;4861216;29;20369;-74
2022/04/28 13:34:40;;;;;;;;;;;18.90;99.90;;;;;;4870109;29;19920;-73
2022/04/28 13:37:07;;;;;;;;;;;18.90;99.90;;;;;;4861342;29;19952;-73
2022/04/28 13:39:34;;;;;;;;;;;18.90;99.90;;;;;;4861008;29;20260;-73
2022/04/28 13:42:01;;;;;;;;;;;18.90;99.90;;;;;;4861147;29;19971;-73
2022/04/28 13:44:28;;;;;;;;;;;18.80;99.90;;;;;;4861236;29;19912;-75
2022/04/28 13:46:54;;;;;;;;;;;18.80;99.90;;;;;;4861298;29;19968;-74
2022/04/28 13:49:21;;;;;;;;;;;18.80;99.90;;;;;;4861120;29;19919;-74
2022/04/28 13:51:48;;;;;;;;;;;18.70;99.90;;;;;;4861079;29;19955;-80
2022/04/28 13:54:15;;;;;;;;;;;18.70;99.90;;;;;;4860983;29;20291;-74
2022/04/28 13:56:41;;;;;;;;;;;18.70;99.90;;;;;;4861169;29;20014;-74
2022/04/28 13:59:09;;;;;;;;;;;18.70;99.90;;;;;;4861093;29;20012;-75
2022/04/28 14:01:37;;;;;;;;;;;18.70;99.90;;;;;;4860776;29;20309;-74
2022/04/28 14:04:05;;;;;;;;;;;18.60;99.90;;;;;;4860873;29;20003;-74
2022/04/28 14:06:32;;;;;;;;;;;18.60;99.90;;;;;;4861114;29;19912;-74
2022/04/28 14:08:59;;;;;;;;;;;18.60;99.90;;;;;;4860795;29;19919;-73
2022/04/28 14:11:26;;;;;;;;;;;18.60;99.90;;;;;;4863628;29;19913;-74
2022/04/28 14:13:53;;;;;;;;;;;18.50;99.90;;;;;;4864715;29;20316;-74
2022/04/28 14:16:19;;;;;;;;;;;18.60;99.90;;;;;;4864910;29;20275;-73
2022/04/28 14:18:46;;;;;;;;;;;18.50;99.90;;;;;;4864659;29;20018;-73
2022/04/28 14:21:13;;;;;;;;;;;18.50;99.90;;;;;;4864786;29;19919;-73
2022/04/28 14:23:39;;;;;;;;;;;18.50;99.90;;;;;;4864404;29;20009;-74
2022/04/28 14:26:06;;;;;;;;;;;18.60;99.90;;;;;;4864657;29;19955;-74
2022/04/28 14:28:33;;;;;;;;;;;18.50;99.90;;;;;;4864715;29;19913;-74
2022/04/28 14:31:00;;;;;;;;;;;18.50;99.90;;;;;;4864411;29;20391;-74
2022/04/28 14:33:26;;;;;;;;;;;18.60;99.90;;;;;;4864269;29;19916;-73
2022/04/28 14:35:53;;;;;;;;;;;18.60;99.90;;;;;;4863052;29;19916;-74
2022/04/28 14:38:20;;;;;;;;;;;18.50;99.90;;;;;;4864410;29;19972;-73
2022/04/28 14:40:47;;;;;;;;;;;18.50;99.90;;;;;;4864736;29;20305;-75
2022/04/28 14:43:14;;;;;;;;;;;18.50;99.90;;;;;;4864247;29;19951;-74
2022/04/28 14:45:43;;;;;;;;;;;18.50;99.90;;;;;;4863947;29;19948;-74
2022/04/28 14:48:11;;;;;;;;;;;18.50;99.90;;;;;;4864096;29;19913;-74
2022/04/28 14:53:22;;;;;;;;;;;18.50;99.90;;;;;;4864464;29;19922;-74
2022/04/28 14:55:50;;;;;;;;;;;18.50;99.90;;;;;;4863851;29;20011;-74
2022/04/28 14:58:18;;;;;;;;;;;18.50;99.90;;;;;;4864150;29;19916;-74
2022/04/28 15:00:44;;;;;;;;;;;18.50;99.90;;;;;;4864025;29;19912;-74
2022/04/28 15:03:12;;;;;;;;;;;18.40;99.90;;;;;;4863643;29;19923;-74
2022/04/28 15:05:39;;;;;;;;;;;18.40;99.90;;;;;;4863599;29;19920;-74
2022/04/28 15:08:05;;;;;;;;;;;18.40;99.90;;;;;;4863853;29;19919;-74
2022/04/28 15:10:32;;;;;;;;;;;18.40;99.90;;;;;;4863887;29;19920;-76
2022/04/28 15:12:59;;;;;;;;;;;18.40;99.90;;;;;;4863824;29;20356;-75
2022/04/28 15:15:25;;;;;;;;;;;18.40;99.90;;;;;;4863862;29;19965;-75